LGKZ/KZI METAR and TAF weather

Enter ICAO airport designator
Station Type Date Time Source
LGKZ METAR 2021/10/24 21:20 UTC NOAA

LGKZ 242120Z AUTO 36004KT 310V010 //// // ////// 10/03 Q1029 RE//


Station Type Date Time Source
LGKZ Decoded METAR 2021/10/24 21:20 UTC NOAA

Kozani Airport , Greece (LGKZ) 40-18N 021-47E 627M
Oct 24, 2021 - 05:20 PM EDT / 2021.10.24 2120 UTC
Wind: from the N (360 degrees) at 5 MPH (4 KT) (direction variable):0
Temperature: 50 F (10 C)
Dew Point: 37 F (3 C)
Relative Humidity: 61%
Pressure (altimeter): 30.39 in. Hg (1029 hPa)
ob: LGKZ 242120Z AUTO 36004KT 310V010 //// // ////// 10/03 Q1029 RE//
cycle: 21

Station Type Date Time Source
LGKZ TAF UTC NOAA

Error!

Example: see airport list